createdAt,value
2023-04-24T10:03:33.215Z,5.70
2023-04-24T10:06:00.559Z,5.70
2023-04-24T10:08:25.168Z,6.00
2023-04-24T10:10:48.924Z,6.10
2023-04-24T10:13:15.453Z,5.10
2023-04-24T10:15:39.285Z,5.10
2023-04-24T10:18:05.783Z,4.80
2023-04-24T10:20:31.075Z,5.00
2023-04-24T10:22:55.303Z,6.20
2023-04-24T10:25:21.511Z,5.40
2023-04-24T10:27:46.340Z,5.40
2023-04-24T10:30:13.967Z,4.50
2023-04-24T10:32:38.041Z,5.40
2023-04-24T10:35:01.664Z,5.20
2023-04-24T10:37:27.131Z,6.90
2023-04-24T10:39:52.113Z,6.20
2023-04-24T10:42:16.674Z,6.10
2023-04-24T10:44:41.883Z,6.60
2023-04-24T10:47:05.922Z,6.50
2023-04-24T10:49:32.956Z,6.10
2023-04-24T10:52:02.364Z,6.30
2023-04-24T10:54:28.028Z,6.20
2023-04-24T10:56:52.615Z,6.50
2023-04-24T10:59:25.782Z,5.90
2023-04-24T11:01:54.960Z,6.80
2023-04-24T11:04:31.727Z,6.00
2023-04-24T11:06:55.925Z,5.80
2023-04-24T11:09:22.339Z,4.90
2023-04-24T11:11:47.816Z,5.70
2023-04-24T11:14:12.124Z,6.30
2023-04-24T11:16:39.647Z,6.20
2023-04-24T11:19:05.668Z,6.40
2023-04-24T11:23:56.238Z,6.80
2023-04-24T11:26:23.500Z,7.00
2023-04-24T11:28:48.935Z,6.40
2023-04-24T11:31:37.592Z,5.90
2023-04-24T11:34:08.408Z,5.40
2023-04-24T11:36:33.178Z,5.70
2023-04-24T11:38:57.446Z,6.10
2023-04-24T11:41:22.760Z,6.60
2023-04-24T11:43:47.080Z,6.00
2023-04-24T11:46:11.343Z,6.60
2023-04-24T11:48:40.424Z,5.70
2023-04-24T11:51:04.224Z,5.80
2023-04-24T11:53:27.793Z,5.50
2023-04-24T11:55:51.480Z,5.30
2023-04-24T11:58:14.927Z,6.00
2023-04-24T12:00:38.734Z,5.70
2023-04-24T12:03:07.719Z,5.20
2023-04-24T12:05:31.908Z,5.40
2023-04-24T12:07:55.814Z,5.30
2023-04-24T12:10:23.465Z,5.00
2023-04-24T12:12:47.186Z,5.00
2023-04-24T12:15:12.824Z,4.80
2023-04-24T12:17:37.408Z,5.00
2023-04-24T12:20:02.832Z,5.60
2023-04-24T12:22:26.276Z,5.80
2023-04-24T12:25:03.518Z,5.70
2023-04-24T12:27:32.695Z,5.70
2023-04-24T12:29:57.836Z,6.10
2023-04-24T12:32:21.917Z,6.20
2023-04-24T12:34:45.390Z,6.00
2023-04-24T12:37:12.459Z,6.20
2023-04-24T12:39:36.098Z,4.20
2023-04-24T12:42:01.809Z,4.60
2023-04-24T12:44:32.266Z,4.90
2023-04-24T12:46:55.861Z,4.80
2023-04-24T12:49:19.340Z,4.80
2023-04-24T12:51:42.713Z,4.90
2023-04-24T12:54:06.750Z,4.60
2023-04-24T12:56:31.079Z,4.10
2023-04-24T12:58:54.473Z,4.70
2023-04-24T13:01:18.538Z,4.00
2023-04-24T13:03:43.058Z,4.40
2023-04-24T13:06:07.065Z,3.80
2023-04-24T13:08:31.135Z,4.20
2023-04-24T13:10:54.568Z,3.30
2023-04-24T13:13:18.041Z,3.20
2023-04-24T13:15:41.907Z,3.30
2023-04-24T13:18:05.817Z,3.70
2023-04-24T13:20:29.424Z,3.40
2023-04-24T13:22:53.137Z,3.40
2023-04-24T13:25:17.421Z,3.30
2023-04-24T13:27:40.841Z,3.40
2023-04-24T13:30:06.196Z,3.70
2023-04-24T13:32:29.979Z,3.30
2023-04-24T13:34:53.626Z,3.20
2023-04-24T13:37:17.271Z,3.20
2023-04-24T13:39:41.649Z,3.40
2023-04-24T13:42:05.448Z,3.70
2023-04-24T13:44:28.937Z,3.20
2023-04-24T13:46:54.651Z,3.30
2023-04-24T13:49:18.356Z,3.50
2023-04-24T13:51:43.148Z,3.50
2023-04-24T13:54:06.680Z,3.60
2023-04-24T13:56:30.142Z,3.90
2023-04-24T13:58:55.586Z,3.70
2023-04-24T14:01:19.245Z,4.00
2023-04-24T14:03:44.173Z,3.50
2023-04-24T14:06:09.206Z,3.80
2023-04-24T14:08:32.548Z,3.60
2023-04-24T14:10:56.034Z,3.60
2023-04-24T14:13:20.440Z,3.60
2023-04-24T14:15:43.975Z,3.30
2023-04-24T14:18:07.486Z,3.80
2023-04-24T14:20:31.626Z,3.60
2023-04-24T14:22:55.082Z,3.60
2023-04-24T14:25:18.555Z,3.50
2023-04-24T14:27:42.357Z,3.80
2023-04-24T14:30:08.879Z,3.60
2023-04-24T14:32:32.371Z,3.70
2023-04-24T14:34:56.010Z,3.60
2023-04-24T14:37:19.598Z,3.70
2023-04-24T14:39:44.484Z,4.00
2023-04-24T14:42:11.591Z,3.90
2023-04-24T14:44:34.941Z,4.00
2023-04-24T14:46:59.072Z,4.30
2023-04-24T14:49:23.892Z,3.70
2023-04-24T14:51:47.586Z,3.80
2023-04-24T14:54:15.249Z,3.60
2023-04-24T14:56:41.389Z,3.40
2023-04-24T14:59:05.386Z,3.80
2023-04-24T15:01:28.839Z,3.20
2023-04-24T15:03:53.227Z,3.40
2023-04-24T15:06:16.977Z,3.50
2023-04-24T15:08:40.422Z,3.50
2023-04-24T15:11:04.937Z,3.10
2023-04-24T15:13:28.345Z,3.30
2023-04-24T15:15:52.055Z,3.70
2023-04-24T15:18:16.119Z,3.60
2023-04-24T15:20:39.954Z,3.30
2023-04-24T15:23:03.527Z,3.30
2023-04-24T15:25:27.243Z,3.30
2023-04-24T15:27:50.848Z,3.00
2023-04-24T15:30:15.059Z,3.20
2023-04-24T15:32:38.951Z,3.60
2023-04-24T15:35:08.466Z,3.50
2023-04-24T15:37:33.082Z,3.30
2023-04-24T15:39:57.014Z,3.50
2023-04-24T15:42:20.456Z,3.30
2023-04-24T15:44:45.529Z,3.90
2023-04-24T15:47:09.884Z,3.50
2023-04-24T15:49:33.582Z,3.50
2023-04-24T15:51:57.105Z,3.50
2023-04-24T15:54:21.112Z,3.60
2023-04-24T15:56:45.138Z,3.40
2023-04-24T15:59:08.754Z,3.40
2023-04-24T16:01:33.373Z,3.50
2023-04-24T16:03:57.298Z,3.50
2023-04-24T16:06:20.801Z,3.50
2023-04-24T16:08:44.602Z,3.70
2023-04-24T16:11:07.965Z,3.70
2023-04-24T16:13:33.705Z,3.80
2023-04-24T16:15:57.808Z,4.00
2023-04-24T16:18:21.855Z,3.90
2023-04-24T16:20:45.838Z,3.60
2023-04-24T16:23:10.024Z,3.50
2023-04-24T16:25:33.693Z,3.80
2023-04-24T16:27:57.197Z,3.60
2023-04-24T16:30:20.722Z,3.80
2023-04-24T16:32:44.206Z,3.80
2023-04-24T16:35:08.690Z,2.90
2023-04-24T16:37:32.583Z,3.90
2023-04-24T16:39:56.273Z,3.60
2023-04-24T16:42:19.715Z,3.90
2023-04-24T16:44:44.283Z,3.70
2023-04-24T16:47:07.948Z,4.00
2023-04-24T16:49:32.145Z,3.40
2023-04-24T16:51:56.736Z,3.80
2023-04-24T16:54:20.170Z,3.90
2023-04-24T16:56:44.562Z,4.10
2023-04-24T16:59:08.576Z,4.10
2023-04-24T17:01:32.008Z,3.90
2023-04-24T17:03:56.348Z,4.10
2023-04-24T17:06:20.726Z,4.50
2023-04-24T17:08:44.089Z,4.90
2023-04-24T17:11:07.484Z,4.50
2023-04-24T17:13:33.163Z,4.70
2023-04-24T17:15:56.754Z,4.30
2023-04-24T17:18:20.156Z,4.90
2023-04-24T17:20:43.782Z,4.00
2023-04-24T17:23:11.206Z,4.80
2023-04-24T17:25:34.538Z,4.70
2023-04-24T17:27:59.549Z,4.50
2023-04-24T17:30:23.527Z,4.40
2023-04-24T17:32:47.087Z,4.90
2023-04-24T17:35:11.906Z,4.70
2023-04-24T17:37:35.587Z,4.50
2023-04-24T17:39:59.067Z,5.70
2023-04-24T17:42:23.440Z,4.30
2023-04-24T17:44:47.079Z,4.80
2023-04-24T17:47:10.649Z,5.00
2023-04-24T17:49:34.814Z,4.70
2023-04-24T17:51:58.265Z,4.70
2023-04-24T17:54:21.808Z,4.20
2023-04-24T17:56:46.425Z,4.80
2023-04-24T17:59:09.885Z,5.30
2023-04-24T18:01:33.396Z,4.40
2023-04-24T18:03:57.428Z,4.80
2023-04-24T18:06:21.264Z,4.90
2023-04-24T18:08:44.783Z,4.80
2023-04-24T18:11:10.095Z,5.00
2023-04-24T18:13:33.866Z,4.80
2023-04-24T18:15:57.382Z,4.80
2023-04-24T18:18:22.530Z,4.90
2023-04-24T18:20:46.420Z,5.20
2023-04-24T18:23:10.290Z,4.40
2023-04-24T18:25:34.677Z,4.60
2023-04-24T18:27:58.227Z,4.60
2023-04-24T18:30:23.441Z,5.60
2023-04-24T18:32:49.392Z,4.90
2023-04-24T18:35:12.916Z,4.80
2023-04-24T18:37:36.371Z,4.90
2023-04-24T18:40:01.024Z,4.70
2023-04-24T18:42:24.687Z,5.70
2023-04-24T18:44:49.167Z,4.80
2023-04-24T18:47:13.634Z,4.90
2023-04-24T18:49:38.530Z,4.80
2023-04-24T18:52:02.144Z,5.60
2023-04-24T18:54:26.881Z,5.00
2023-04-24T18:56:50.878Z,5.10
2023-04-24T18:59:14.400Z,4.90
2023-04-24T19:01:39.193Z,5.30
2023-04-24T19:04:03.485Z,4.90
2023-04-24T19:06:26.928Z,4.80
2023-04-24T19:08:52.087Z,5.10
2023-04-24T19:11:15.570Z,5.30
2023-04-24T19:13:38.970Z,6.20
2023-04-24T19:16:03.008Z,5.30
2023-04-24T19:18:28.674Z,5.20
2023-04-24T19:20:52.334Z,5.60
2023-04-24T19:23:16.002Z,5.20
2023-04-24T19:25:39.420Z,5.60
2023-04-24T19:28:02.984Z,5.70
2023-04-24T19:30:26.827Z,5.90
2023-04-24T19:32:50.241Z,6.10
2023-04-24T19:35:13.711Z,6.00
2023-04-24T19:37:39.798Z,6.00
2023-04-24T19:40:03.651Z,6.10
2023-04-24T19:42:41.889Z,6.00
2023-04-24T19:45:16.186Z,6.00
2023-04-24T19:47:39.897Z,6.20
2023-04-24T19:50:03.880Z,6.30
2023-04-24T19:52:28.339Z,6.00
2023-04-24T19:54:52.026Z,6.70
2023-04-24T19:57:15.623Z,6.80
2023-04-24T19:59:40.837Z,7.20
2023-04-24T20:02:04.335Z,8.10
2023-04-24T20:04:28.046Z,7.90
2023-04-24T20:06:52.628Z,7.50
2023-04-24T20:09:15.993Z,7.70
2023-04-24T20:11:39.982Z,8.30
2023-04-24T20:14:03.858Z,8.50
2023-04-24T20:16:27.649Z,8.60
2023-04-24T20:18:51.423Z,9.20
2023-04-24T20:21:15.333Z,8.90
2023-04-24T20:23:38.806Z,8.90
2023-04-24T20:26:04.236Z,9.00
2023-04-24T20:28:29.468Z,9.60
2023-04-24T20:30:55.609Z,9.20
2023-04-24T20:33:19.240Z,9.40
2023-04-24T20:35:44.906Z,9.70
2023-04-24T20:38:10.344Z,9.90
2023-04-24T20:40:34.853Z,9.50
2023-04-24T20:42:59.834Z,9.30
2023-04-24T20:45:23.575Z,9.60
2023-04-24T20:47:49.989Z,9.30
2023-04-24T20:50:15.950Z,10.00
2023-04-24T20:52:39.424Z,10.20
2023-04-24T20:55:03.804Z,10.20
2023-04-24T20:57:29.607Z,10.30
2023-04-24T20:59:53.495Z,9.70
2023-04-24T21:02:17.127Z,9.80
2023-04-24T21:04:41.785Z,10.30
2023-04-24T21:07:05.565Z,10.10
2023-04-24T21:09:29.082Z,10.10
2023-04-24T21:11:53.145Z,10.10
2023-04-24T21:14:16.532Z,10.20
2023-04-24T21:16:40.245Z,10.30
2023-04-24T21:19:05.512Z,9.50
2023-04-24T21:21:29.076Z,9.90
2023-04-24T21:23:52.479Z,9.90
2023-04-24T21:26:16.677Z,10.10
2023-04-24T21:28:40.174Z,9.90
2023-04-24T21:31:03.777Z,10.50
2023-04-24T21:33:28.860Z,10.20
2023-04-24T21:36:06.268Z,10.20
2023-04-24T21:38:30.419Z,9.90
2023-04-24T21:40:53.968Z,10.00
2023-04-24T21:43:17.869Z,9.90
2023-04-24T21:45:41.872Z,9.80
2023-04-24T21:48:05.961Z,10.00
2023-04-24T21:50:29.951Z,9.50
2023-04-24T21:52:54.870Z,9.70
2023-04-24T21:55:20.664Z,9.40
2023-04-24T21:57:44.967Z,10.10
2023-04-24T22:00:12.504Z,9.90
2023-04-24T22:02:36.423Z,10.20
2023-04-24T22:05:02.650Z,10.30
2023-04-24T22:07:26.335Z,9.90
2023-04-24T22:09:50.015Z,10.40
2023-04-24T22:12:13.499Z,10.40
2023-04-24T22:14:36.947Z,10.70
2023-04-24T22:17:00.344Z,10.00
2023-04-24T22:19:25.535Z,10.20
2023-04-24T22:21:49.848Z,10.70
2023-04-24T22:24:18.719Z,10.20
2023-04-24T22:26:42.308Z,10.90
2023-04-24T22:29:06.018Z,10.30
2023-04-24T22:31:29.726Z,11.60
2023-04-24T22:33:53.431Z,11.30
2023-04-24T22:36:19.967Z,11.00
2023-04-24T22:38:43.742Z,11.30
2023-04-24T22:41:07.590Z,11.80
2023-04-24T22:43:31.556Z,11.50
2023-04-24T22:45:55.046Z,11.90
2023-04-24T22:48:18.513Z,12.20
2023-04-24T22:50:42.390Z,11.80
2023-04-24T22:53:06.496Z,12.70
2023-04-24T22:55:30.952Z,13.10
2023-04-24T22:57:56.874Z,12.30
2023-04-24T23:00:20.376Z,12.80
2023-04-24T23:02:44.339Z,12.60
2023-04-24T23:05:10.195Z,13.10
2023-04-24T23:07:34.107Z,13.20
2023-04-24T23:09:57.777Z,13.60
2023-04-24T23:12:21.243Z,13.40
2023-04-24T23:14:44.705Z,13.60
2023-04-24T23:17:08.374Z,13.60
2023-04-24T23:19:33.372Z,13.60
2023-04-24T23:21:56.963Z,13.70
2023-04-24T23:24:20.505Z,14.20
2023-04-24T23:26:43.969Z,14.20
2023-04-24T23:29:07.845Z,13.70
2023-04-24T23:31:31.645Z,14.40
2023-04-24T23:33:59.519Z,14.70
2023-04-24T23:36:22.958Z,14.50
2023-04-24T23:38:50.246Z,15.00
2023-04-24T23:41:14.382Z,14.80
2023-04-24T23:43:38.456Z,15.00
2023-04-24T23:46:02.690Z,15.10
2023-04-24T23:48:26.066Z,16.20
2023-04-24T23:50:49.668Z,15.30
2023-04-24T23:53:13.097Z,16.20
2023-04-24T23:55:36.927Z,15.50
2023-04-24T23:58:00.470Z,15.30
